sensor_id;sensor_type;location;lat;lon;timestamp;pressure;altitude;pressure_sealevel;temperature;humidity
37778;BME280;23615;51.506;7.678;2023-03-13T00:01:56;98915.88;;;9.43;88.93
37778;BME280;23615;51.506;7.678;2023-03-13T00:04:21;98919.56;;;9.42;89.26
37778;BME280;23615;51.506;7.678;2023-03-13T00:06:47;98901.97;;;9.57;88.89
37778;BME280;23615;51.506;7.678;2023-03-13T00:09:14;98906.50;;;9.57;89.31
37778;BME280;23615;51.506;7.678;2023-03-13T00:11:40;98886.59;;;9.43;90.14
37778;BME280;23615;51.506;7.678;2023-03-13T00:14:06;98879.47;;;9.48;90.17
37778;BME280;23615;51.506;7.678;2023-03-13T00:16:32;98897.44;;;9.58;89.87
37778;BME280;23615;51.506;7.678;2023-03-13T00:18:59;98873.47;;;9.58;89.83
37778;BME280;23615;51.506;7.678;2023-03-13T00:21:26;98871.19;;;9.45;90.78
37778;BME280;23615;51.506;7.678;2023-03-13T00:23:52;98867.53;;;9.51;89.95
37778;BME280;23615;51.506;7.678;2023-03-13T00:26:20;98857.31;;;9.43;90.19
37778;BME280;23615;51.506;7.678;2023-03-13T00:28:46;98859.69;;;9.61;90.36
37778;BME280;23615;51.506;7.678;2023-03-13T00:33:39;98856.78;;;9.62;90.15
37778;BME280;23615;51.506;7.678;2023-03-13T00:36:07;98854.69;;;9.64;90.57
37778;BME280;23615;51.506;7.678;2023-03-13T00:38:33;98858.22;;;9.70;90.96
37778;BME280;23615;51.506;7.678;2023-03-13T00:41:03;98858.13;;;9.82;90.50
37778;BME280;23615;51.506;7.678;2023-03-13T00:43:29;98856.78;;;9.84;90.28
37778;BME280;23615;51.506;7.678;2023-03-13T00:45:56;98840.44;;;9.75;90.75
37778;BME280;23615;51.506;7.678;2023-03-13T00:48:21;98840.63;;;9.69;91.80
37778;BME280;23615;51.506;7.678;2023-03-13T00:50:47;98843.63;;;9.72;92.09
37778;BME280;23615;51.506;7.678;2023-03-13T00:53:12;98836.34;;;9.68;91.90
37778;BME280;23615;51.506;7.678;2023-03-13T00:55:38;98832.34;;;9.87;91.54
37778;BME280;23615;51.506;7.678;2023-03-13T00:58:03;98817.16;;;9.88;92.03
37778;BME280;23615;51.506;7.678;2023-03-13T01:00:28;98823.34;;;9.93;92.12
37778;BME280;23615;51.506;7.678;2023-03-13T01:02:54;98812.47;;;9.73;93.23
37778;BME280;23615;51.506;7.678;2023-03-13T01:05:19;98807.75;;;9.80;93.87
37778;BME280;23615;51.506;7.678;2023-03-13T01:07:44;98795.03;;;9.65;94.45
37778;BME280;23615;51.506;7.678;2023-03-13T01:10:09;98791.63;;;9.70;94.66
37778;BME280;23615;51.506;7.678;2023-03-13T01:12:35;98781.03;;;9.75;94.78
37778;BME280;23615;51.506;7.678;2023-03-13T01:15:00;98780.41;;;9.68;95.04
37778;BME280;23615;51.506;7.678;2023-03-13T01:17:26;98778.28;;;9.65;95.78
37778;BME280;23615;51.506;7.678;2023-03-13T01:19:54;98773.19;;;9.63;96.18
37778;BME280;23615;51.506;7.678;2023-03-13T01:22:20;98764.63;;;9.61;95.86
37778;BME280;23615;51.506;7.678;2023-03-13T01:24:45;98748.91;;;9.60;96.98
37778;BME280;23615;51.506;7.678;2023-03-13T01:27:14;98747.09;;;9.65;96.70
37778;BME280;23615;51.506;7.678;2023-03-13T01:29:39;98747.81;;;9.56;97.43
37778;BME280;23615;51.506;7.678;2023-03-13T01:32:05;98741.16;;;9.58;97.23
37778;BME280;23615;51.506;7.678;2023-03-13T01:34:30;98735.22;;;9.51;97.22
37778;BME280;23615;51.506;7.678;2023-03-13T01:36:55;98732.38;;;9.58;97.03
37778;BME280;23615;51.506;7.678;2023-03-13T01:39:20;98720.91;;;9.57;97.24
37778;BME280;23615;51.506;7.678;2023-03-13T01:41:46;98706.19;;;9.50;97.17
37778;BME280;23615;51.506;7.678;2023-03-13T01:44:20;98708.84;;;9.50;97.38
37778;BME280;23615;51.506;7.678;2023-03-13T01:46:46;98688.47;;;9.38;97.59
37778;BME280;23615;51.506;7.678;2023-03-13T01:49:21;98694.94;;;9.43;97.49
37778;BME280;23615;51.506;7.678;2023-03-13T01:51:51;98704.28;;;9.45;97.56
37778;BME280;23615;51.506;7.678;2023-03-13T01:54:21;98686.50;;;9.51;97.62
37778;BME280;23615;51.506;7.678;2023-03-13T01:57:02;98686.06;;;9.59;96.86
37778;BME280;23615;51.506;7.678;2023-03-13T01:59:44;98690.31;;;9.60;96.70
37778;BME280;23615;51.506;7.678;2023-03-13T02:02:12;98658.38;;;9.60;96.95
37778;BME280;23615;51.506;7.678;2023-03-13T02:04:41;98650.44;;;9.65;97.17
37778;BME280;23615;51.506;7.678;2023-03-13T02:07:13;98620.19;;;9.49;97.99
37778;BME280;23615;51.506;7.678;2023-03-13T02:09:41;98626.72;;;9.63;98.04
37778;BME280;23615;51.506;7.678;2023-03-13T02:12:09;98630.44;;;9.35;99.58
37778;BME280;23615;51.506;7.678;2023-03-13T02:14:37;98612.44;;;9.48;98.81
37778;BME280;23615;51.506;7.678;2023-03-13T02:17:06;98609.75;;;9.43;99.75
37778;BME280;23615;51.506;7.678;2023-03-13T02:19:44;98605.56;;;9.52;99.98
37778;BME280;23615;51.506;7.678;2023-03-13T02:22:23;98591.41;;;9.46;100.00
37778;BME280;23615;51.506;7.678;2023-03-13T02:25:07;98596.13;;;9.39;100.00
37778;BME280;23615;51.506;7.678;2023-03-13T02:27:35;98585.19;;;9.35;100.00
37778;BME280;23615;51.506;7.678;2023-03-13T02:30:02;98592.84;;;9.59;100.00
37778;BME280;23615;51.506;7.678;2023-03-13T02:32:29;98585.56;;;9.49;100.00
37778;BME280;23615;51.506;7.678;2023-03-13T02:34:58;98574.91;;;9.44;100.00
37778;BME280;23615;51.506;7.678;2023-03-13T02:37:28;98565.78;;;9.40;100.00
37778;BME280;23615;51.506;7.678;2023-03-13T02:39:55;98560.22;;;9.42;100.00
37778;BME280;23615;51.506;7.678;2023-03-13T02:42:24;98550.72;;;9.51;100.00
37778;BME280;23615;51.506;7.678;2023-03-13T02:44:49;98543.44;;;9.41;100.00
37778;BME280;23615;51.506;7.678;2023-03-13T02:47:21;98541.72;;;9.30;100.00
37778;BME280;23615;51.506;7.678;2023-03-13T02:49:47;98530.13;;;9.41;100.00
37778;BME280;23615;51.506;7.678;2023-03-13T02:52:17;98533.16;;;9.23;100.00
37778;BME280;23615;51.506;7.678;2023-03-13T02:54:44;98519.63;;;9.29;100.00
37778;BME280;23615;51.506;7.678;2023-03-13T02:57:11;98512.97;;;9.27;100.00
37778;BME280;23615;51.506;7.678;2023-03-13T02:59:37;98509.06;;;9.34;100.00
37778;BME280;23615;51.506;7.678;2023-03-13T03:02:03;98501.63;;;9.36;100.00
37778;BME280;23615;51.506;7.678;2023-03-13T03:04:29;98494.84;;;9.24;100.00
37778;BME280;23615;51.506;7.678;2023-03-13T03:06:54;98497.00;;;9.27;100.00
37778;BME280;23615;51.506;7.678;2023-03-13T03:09:20;98502.63;;;9.30;100.00
37778;BME280;23615;51.506;7.678;2023-03-13T03:11:46;98500.97;;;9.24;100.00
37778;BME280;23615;51.506;7.678;2023-03-13T03:14:12;98496.81;;;9.33;100.00
37778;BME280;23615;51.506;7.678;2023-03-13T03:16:38;98480.72;;;9.18;100.00
37778;BME280;23615;51.506;7.678;2023-03-13T03:19:03;98485.50;;;9.21;100.00
37778;BME280;23615;51.506;7.678;2023-03-13T03:21:29;98475.09;;;9.20;100.00
37778;BME280;23615;51.506;7.678;2023-03-13T03:23:54;98482.69;;;9.33;100.00
37778;BME280;23615;51.506;7.678;2023-03-13T03:26:20;98482.47;;;9.39;100.00
37778;BME280;23615;51.506;7.678;2023-03-13T03:28:45;98469.50;;;9.48;100.00
37778;BME280;23615;51.506;7.678;2023-03-13T03:31:13;98463.13;;;9.49;100.00
37778;BME280;23615;51.506;7.678;2023-03-13T03:33:40;98465.84;;;9.54;100.00
37778;BME280;23615;51.506;7.678;2023-03-13T03:36:08;98457.28;;;9.52;100.00
37778;BME280;23615;51.506;7.678;2023-03-13T03:38:34;98474.16;;;9.63;100.00
37778;BME280;23615;51.506;7.678;2023-03-13T03:41:00;98479.66;;;9.51;100.00
37778;BME280;23615;51.506;7.678;2023-03-13T03:43:25;98452.00;;;9.57;100.00
37778;BME280;23615;51.506;7.678;2023-03-13T03:45:51;98449.66;;;9.66;100.00
37778;BME280;23615;51.506;7.678;2023-03-13T03:48:16;98456.91;;;9.75;100.00
37778;BME280;23615;51.506;7.678;2023-03-13T03:50:42;98448.84;;;9.65;100.00
37778;BME280;23615;51.506;7.678;2023-03-13T03:53:07;98441.66;;;9.66;100.00
37778;BME280;23615;51.506;7.678;2023-03-13T03:55:33;98439.47;;;9.58;100.00
37778;BME280;23615;51.506;7.678;2023-03-13T03:57:59;98435.00;;;9.63;100.00
37778;BME280;23615;51.506;7.678;2023-03-13T04:00:24;98456.34;;;9.68;100.00
37778;BME280;23615;51.506;7.678;2023-03-13T04:02:50;98441.78;;;9.81;100.00
37778;BME280;23615;51.506;7.678;2023-03-13T04:05:15;98439.72;;;9.93;100.00
37778;BME280;23615;51.506;7.678;2023-03-13T04:07:40;98436.47;;;9.86;100.00
37778;BME280;23615;51.506;7.678;2023-03-13T04:10:06;98429.84;;;9.94;100.00
37778;BME280;23615;51.506;7.678;2023-03-13T04:12:31;98438.13;;;9.92;100.00
37778;BME280;23615;51.506;7.678;2023-03-13T04:14:57;98439.19;;;9.96;100.00
37778;BME280;23615;51.506;7.678;2023-03-13T04:17:22;98434.06;;;9.85;100.00
37778;BME280;23615;51.506;7.678;2023-03-13T04:19:47;98424.81;;;9.97;100.00
37778;BME280;23615;51.506;7.678;2023-03-13T04:22:12;98441.06;;;9.96;100.00
37778;BME280;23615;51.506;7.678;2023-03-13T04:24:38;98429.66;;;10.05;100.00
37778;BME280;23615;51.506;7.678;2023-03-13T04:27:03;98436.84;;;10.05;100.00
37778;BME280;23615;51.506;7.678;2023-03-13T04:29:31;98437.72;;;10.16;100.00
37778;BME280;23615;51.506;7.678;2023-03-13T04:31:56;98427.13;;;10.31;100.00
37778;BME280;23615;51.506;7.678;2023-03-13T04:34:21;98438.03;;;10.19;100.00
37778;BME280;23615;51.506;7.678;2023-03-13T04:36:47;98434.06;;;10.27;100.00
37778;BME280;23615;51.506;7.678;2023-03-13T04:39:12;98418.28;;;10.20;100.00
37778;BME280;23615;51.506;7.678;2023-03-13T04:41:37;98423.31;;;10.17;100.00
37778;BME280;23615;51.506;7.678;2023-03-13T04:44:03;98413.06;;;9.93;100.00
37778;BME280;23615;51.506;7.678;2023-03-13T04:46:28;98403.00;;;10.00;100.00
37778;BME280;23615;51.506;7.678;2023-03-13T04:48:53;98402.25;;;10.15;100.00
37778;BME280;23615;51.506;7.678;2023-03-13T04:51:18;98405.19;;;10.13;100.00
37778;BME280;23615;51.506;7.678;2023-03-13T04:53:44;98401.69;;;10.08;100.00
37778;BME280;23615;51.506;7.678;2023-03-13T04:56:11;98406.22;;;10.12;100.00
37778;BME280;23615;51.506;7.678;2023-03-13T04:58:39;98397.25;;;10.19;100.00
37778;BME280;23615;51.506;7.678;2023-03-13T05:01:04;98390.50;;;10.11;100.00
37778;BME280;23615;51.506;7.678;2023-03-13T05:03:30;98397.00;;;10.30;100.00
37778;BME280;23615;51.506;7.678;2023-03-13T05:05:55;98394.31;;;10.20;100.00
37778;BME280;23615;51.506;7.678;2023-03-13T05:08:20;98392.91;;;10.07;100.00
37778;BME280;23615;51.506;7.678;2023-03-13T05:10:46;98388.13;;;10.09;100.00
37778;BME280;23615;51.506;7.678;2023-03-13T05:13:11;98389.78;;;10.21;100.00
37778;BME280;23615;51.506;7.678;2023-03-13T05:15:38;98381.81;;;10.26;100.00
37778;BME280;23615;51.506;7.678;2023-03-13T05:18:03;98391.34;;;10.17;100.00
37778;BME280;23615;51.506;7.678;2023-03-13T05:20:29;98382.53;;;10.16;100.00
37778;BME280;23615;51.506;7.678;2023-03-13T05:22:54;98388.47;;;10.23;100.00
37778;BME280;23615;51.506;7.678;2023-03-13T05:25:19;98377.00;;;10.18;100.00
37778;BME280;23615;51.506;7.678;2023-03-13T05:27:44;98378.91;;;10.32;100.00
37778;BME280;23615;51.506;7.678;2023-03-13T05:30:10;98385.47;;;10.14;100.00
37778;BME280;23615;51.506;7.678;2023-03-13T05:32:35;98381.47;;;10.17;100.00
37778;BME280;23615;51.506;7.678;2023-03-13T05:35:01;98379.66;;;10.23;100.00
37778;BME280;23615;51.506;7.678;2023-03-13T05:37:26;98372.75;;;10.32;100.00
37778;BME280;23615;51.506;7.678;2023-03-13T05:39:52;98373.56;;;10.27;100.00
37778;BME280;23615;51.506;7.678;2023-03-13T05:42:17;98369.84;;;10.38;100.00
37778;BME280;23615;51.506;7.678;2023-03-13T05:44:42;98372.00;;;10.57;100.00
37778;BME280;23615;51.506;7.678;2023-03-13T05:47:07;98366.09;;;10.29;100.00
37778;BME280;23615;51.506;7.678;2023-03-13T05:49:33;98361.59;;;10.40;100.00
37778;BME280;23615;51.506;7.678;2023-03-13T05:51:59;98366.97;;;10.55;100.00
37778;BME280;23615;51.506;7.678;2023-03-13T05:54:24;98374.69;;;10.52;100.00
37778;BME280;23615;51.506;7.678;2023-03-13T05:56:49;98371.75;;;10.58;100.00
37778;BME280;23615;51.506;7.678;2023-03-13T05:59:16;98370.16;;;10.67;100.00
37778;BME280;23615;51.506;7.678;2023-03-13T06:01:41;98378.19;;;10.72;100.00
37778;BME280;23615;51.506;7.678;2023-03-13T06:04:06;98380.28;;;10.65;100.00
37778;BME280;23615;51.506;7.678;2023-03-13T06:06:31;98377.13;;;10.68;100.00
37778;BME280;23615;51.506;7.678;2023-03-13T06:08:57;98367.25;;;10.79;100.00
37778;BME280;23615;51.506;7.678;2023-03-13T06:11:22;98385.66;;;10.70;100.00
37778;BME280;23615;51.506;7.678;2023-03-13T06:13:50;98385.13;;;10.78;100.00
37778;BME280;23615;51.506;7.678;2023-03-13T06:16:15;98393.94;;;10.94;100.00
37778;BME280;23615;51.506;7.678;2023-03-13T06:18:41;98390.47;;;10.78;100.00
37778;BME280;23615;51.506;7.678;2023-03-13T06:21:06;98389.44;;;11.10;100.00
37778;BME280;23615;51.506;7.678;2023-03-13T06:23:31;98376.06;;;11.05;100.00
37778;BME280;23615;51.506;7.678;2023-03-13T06:25:57;98375.00;;;11.11;100.00
37778;BME280;23615;51.506;7.678;2023-03-13T06:28:22;98366.47;;;10.99;100.00
37778;BME280;23615;51.506;7.678;2023-03-13T06:30:47;98363.00;;;11.23;100.00
37778;BME280;23615;51.506;7.678;2023-03-13T06:33:13;98365.94;;;11.02;100.00
37778;BME280;23615;51.506;7.678;2023-03-13T06:35:39;98370.50;;;11.01;100.00
37778;BME280;23615;51.506;7.678;2023-03-13T06:38:05;98371.53;;;10.85;100.00
37778;BME280;23615;51.506;7.678;2023-03-13T06:40:30;98375.53;;;10.87;100.00
37778;BME280;23615;51.506;7.678;2023-03-13T06:42:56;98365.66;;;11.03;100.00
37778;BME280;23615;51.506;7.678;2023-03-13T06:45:21;98367.28;;;10.99;100.00
37778;BME280;23615;51.506;7.678;2023-03-13T06:47:46;98364.34;;;11.06;100.00
37778;BME280;23615;51.506;7.678;2023-03-13T06:50:11;98377.94;;;11.14;100.00
37778;BME280;23615;51.506;7.678;2023-03-13T06:52:37;98360.59;;;11.07;100.00
37778;BME280;23615;51.506;7.678;2023-03-13T06:55:03;98363.00;;;11.18;100.00
37778;BME280;23615;51.506;7.678;2023-03-13T06:57:28;98359.53;;;11.28;100.00
37778;BME280;23615;51.506;7.678;2023-03-13T06:59:54;98359.28;;;11.19;100.00
37778;BME280;23615;51.506;7.678;2023-03-13T07:02:19;98365.41;;;11.15;100.00
37778;BME280;23615;51.506;7.678;2023-03-13T07:04:44;98368.06;;;11.20;100.00
37778;BME280;23615;51.506;7.678;2023-03-13T07:07:10;98366.97;;;11.41;100.00
37778;BME280;23615;51.506;7.678;2023-03-13T07:09:36;98377.38;;;11.58;100.00
37778;BME280;23615;51.506;7.678;2023-03-13T07:12:01;98378.44;;;11.62;100.00
37778;BME280;23615;51.506;7.678;2023-03-13T07:14:27;98389.09;;;11.67;100.00
37778;BME280;23615;51.506;7.678;2023-03-13T07:16:53;98380.78;;;11.84;100.00
37778;BME280;23615;51.506;7.678;2023-03-13T07:19:18;98375.72;;;11.87;100.00
37778;BME280;23615;51.506;7.678;2023-03-13T07:21:43;98372.53;;;11.80;100.00
37778;BME280;23615;51.506;7.678;2023-03-13T07:24:09;98378.66;;;11.91;100.00
37778;BME280;23615;51.506;7.678;2023-03-13T07:26:34;98371.22;;;11.83;100.00
37778;BME280;23615;51.506;7.678;2023-03-13T07:28:59;98362.34;;;11.92;100.00
37778;BME280;23615;51.506;7.678;2023-03-13T07:31:25;98378.66;;;11.91;100.00
37778;BME280;23615;51.506;7.678;2023-03-13T07:33:52;98366.31;;;12.05;100.00
37778;BME280;23615;51.506;7.678;2023-03-13T07:36:20;98361.75;;;12.06;100.00
37778;BME280;23615;51.506;7.678;2023-03-13T07:38:47;98355.84;;;12.14;100.00
37778;BME280;23615;51.506;7.678;2023-03-13T07:41:12;98357.22;;;12.06;100.00
37778;BME280;23615;51.506;7.678;2023-03-13T07:43:39;98353.13;;;12.24;100.00
37778;BME280;23615;51.506;7.678;2023-03-13T07:46:05;98355.47;;;12.30;100.00
37778;BME280;23615;51.506;7.678;2023-03-13T07:48:33;98346.06;;;12.43;99.50
37778;BME280;23615;51.506;7.678;2023-03-13T07:50:59;98352.53;;;12.32;100.00
37778;BME280;23615;51.506;7.678;2023-03-13T07:53:26;98348.19;;;12.46;99.40
37778;BME280;23615;51.506;7.678;2023-03-13T07:55:53;98335.06;;;12.50;98.56
37778;BME280;23615;51.506;7.678;2023-03-13T07:58:19;98336.88;;;12.59;98.12
37778;BME280;23615;51.506;7.678;2023-03-13T08:00:44;98328.81;;;12.64;98.19
37778;BME280;23615;51.506;7.678;2023-03-13T08:03:09;98328.56;;;12.61;98.27
37778;BME280;23615;51.506;7.678;2023-03-13T08:05:35;98313.84;;;12.63;97.88
37778;BME280;23615;51.506;7.678;2023-03-13T08:08:00;98323.47;;;12.64;97.31
37778;BME280;23615;51.506;7.678;2023-03-13T08:10:25;98309.50;;;12.67;96.90
37778;BME280;23615;51.506;7.678;2023-03-13T08:12:50;98326.38;;;12.68;96.97
37778;BME280;23615;51.506;7.678;2023-03-13T08:15:16;98303.88;;;12.69;96.64
37778;BME280;23615;51.506;7.678;2023-03-13T08:17:42;98319.63;;;12.75;96.88
37778;BME280;23615;51.506;7.678;2023-03-13T08:20:08;98307.75;;;12.87;96.38
37778;BME280;23615;51.506;7.678;2023-03-13T08:22:34;98310.22;;;12.83;96.73
37778;BME280;23615;51.506;7.678;2023-03-13T08:25:01;98316.06;;;12.85;96.17
37778;BME280;23615;51.506;7.678;2023-03-13T08:27:28;98315.25;;;12.85;95.68
37778;BME280;23615;51.506;7.678;2023-03-13T08:29:54;98314.47;;;12.84;96.08
37778;BME280;23615;51.506;7.678;2023-03-13T08:32:19;98311.06;;;13.07;94.94
37778;BME280;23615;51.506;7.678;2023-03-13T08:34:46;98317.41;;;12.88;95.30
37778;BME280;23615;51.506;7.678;2023-03-13T08:37:14;98311.63;;;13.04;94.67
37778;BME280;23615;51.506;7.678;2023-03-13T08:39:39;98301.97;;;13.08;94.44
37778;BME280;23615;51.506;7.678;2023-03-13T08:42:07;98305.16;;;13.10;94.07
37778;BME280;23615;51.506;7.678;2023-03-13T08:44:35;98312.69;;;13.08;94.10
37778;BME280;23615;51.506;7.678;2023-03-13T08:47:00;98312.88;;;13.17;93.68
37778;BME280;23615;51.506;7.678;2023-03-13T08:49:26;98312.63;;;13.19;93.07
37778;BME280;23615;51.506;7.678;2023-03-13T08:51:51;98307.81;;;13.16;93.40
37778;BME280;23615;51.506;7.678;2023-03-13T08:54:16;98319.38;;;13.06;93.38
37778;BME280;23615;51.506;7.678;2023-03-13T08:56:41;98313.09;;;13.21;92.83
37778;BME280;23615;51.506;7.678;2023-03-13T08:59:09;98327.81;;;13.23;93.16
37778;BME280;23615;51.506;7.678;2023-03-13T09:01:35;98327.28;;;13.21;92.56
37778;BME280;23615;51.506;7.678;2023-03-13T09:04:02;98329.41;;;13.24;92.45
37778;BME280;23615;51.506;7.678;2023-03-13T09:06:27;98327.34;;;13.16;93.78
37778;BME280;23615;51.506;7.678;2023-03-13T09:08:55;98323.53;;;13.22;92.99
37778;BME280;23615;51.506;7.678;2023-03-13T09:11:22;98317.38;;;13.22;92.55
37778;BME280;23615;51.506;7.678;2023-03-13T09:13:49;98338.19;;;13.30;93.27
37778;BME280;23615;51.506;7.678;2023-03-13T09:16:17;98321.91;;;13.26;93.21
37778;BME280;23615;51.506;7.678;2023-03-13T09:18:42;98322.09;;;13.35;93.38
37778;BME280;23615;51.506;7.678;2023-03-13T09:21:11;98327.13;;;13.41;93.04
37778;BME280;23615;51.506;7.678;2023-03-13T09:23:37;98312.56;;;13.24;93.75
37778;BME280;23615;51.506;7.678;2023-03-13T09:26:03;98329.69;;;13.23;93.66
37778;BME280;23615;51.506;7.678;2023-03-13T09:28:28;98343.63;;;13.25;93.92
37778;BME280;23615;51.506;7.678;2023-03-13T09:30:54;98331.53;;;13.27;93.85
37778;BME280;23615;51.506;7.678;2023-03-13T09:33:21;98324.06;;;13.24;94.02
37778;BME280;23615;51.506;7.678;2023-03-13T09:35:48;98332.84;;;13.30;94.23
37778;BME280;23615;51.506;7.678;2023-03-13T09:38:19;98322.66;;;13.32;94.57
37778;BME280;23615;51.506;7.678;2023-03-13T09:40:49;98314.69;;;13.51;93.49
37778;BME280;23615;51.506;7.678;2023-03-13T09:46:04;98290.72;;;13.64;93.54
37778;BME280;23615;51.506;7.678;2023-03-13T09:48:32;98307.22;;;13.71;93.67
37778;BME280;23615;51.506;7.678;2023-03-13T09:51:04;98293.72;;;13.81;93.43
37778;BME280;23615;51.506;7.678;2023-03-13T09:54:06;98293.56;;;13.73;93.80
37778;BME280;23615;51.506;7.678;2023-03-13T09:56:44;98297.19;;;13.82;92.87
37778;BME280;23615;51.506;7.678;2023-03-13T10:01:39;98284.00;;;13.85;93.61
37778;BME280;23615;51.506;7.678;2023-03-13T10:06:43;98273.09;;;14.01;92.95
37778;BME280;23615;51.506;7.678;2023-03-13T10:09:19;98275.09;;;13.90;94.26
37778;BME280;23615;51.506;7.678;2023-03-13T10:12:20;98269.03;;;14.03;93.63
37778;BME280;23615;51.506;7.678;2023-03-13T10:17:47;98252.66;;;14.23;92.94
37778;BME280;23615;51.506;7.678;2023-03-13T10:22:40;98251.31;;;14.45;91.90
37778;BME280;23615;51.506;7.678;2023-03-13T10:25:26;98252.91;;;14.46;91.22
37778;BME280;23615;51.506;7.678;2023-03-13T10:27:53;98250.00;;;14.42;91.14
37778;BME280;23615;51.506;7.678;2023-03-13T10:30:29;98242.50;;;14.39;92.32
37778;BME280;23615;51.506;7.678;2023-03-13T10:35:36;98250.09;;;14.70;90.47
37778;BME280;23615;51.506;7.678;2023-03-13T10:38:05;98238.84;;;14.68;89.63
37778;BME280;23615;51.506;7.678;2023-03-13T10:40:31;98254.59;;;14.74;90.04
37778;BME280;23615;51.506;7.678;2023-03-13T10:43:03;98232.81;;;14.76;88.41
37778;BME280;23615;51.506;7.678;2023-03-13T10:45:34;98248.31;;;14.79;89.14
37778;BME280;23615;51.506;7.678;2023-03-13T10:48:23;98247.69;;;15.01;87.89
37778;BME280;23615;51.506;7.678;2023-03-13T10:50:53;98223.63;;;15.09;87.23
37778;BME280;23615;51.506;7.678;2023-03-13T10:53:20;98207.69;;;15.13;86.61
37778;BME280;23615;51.506;7.678;2023-03-13T10:55:46;98214.97;;;14.98;86.36
37778;BME280;23615;51.506;7.678;2023-03-13T10:58:19;98207.41;;;15.01;86.46
37778;BME280;23615;51.506;7.678;2023-03-13T11:00:46;98218.25;;;15.09;85.06
37778;BME280;23615;51.506;7.678;2023-03-13T11:03:30;98214.66;;;15.14;85.96
37778;BME280;23615;51.506;7.678;2023-03-13T11:05:59;98197.16;;;15.16;84.27
37778;BME280;23615;51.506;7.678;2023-03-13T11:08:27;98191.69;;;15.08;85.27
37778;BME280;23615;51.506;7.678;2023-03-13T11:10:56;98195.88;;;15.27;84.26
37778;BME280;23615;51.506;7.678;2023-03-13T11:13:39;98183.25;;;15.28;84.27
37778;BME280;23615;51.506;7.678;2023-03-13T11:16:27;98195.47;;;15.34;82.96
37778;BME280;23615;51.506;7.678;2023-03-13T11:19:07;98193.59;;;15.34;82.64
37778;BME280;23615;51.506;7.678;2023-03-13T11:24:43;98191.78;;;15.44;81.25
37778;BME280;23615;51.506;7.678;2023-03-13T11:33:03;98167.09;;;15.42;80.73
37778;BME280;23615;51.506;7.678;2023-03-13T11:35:40;98159.88;;;15.56;80.88
37778;BME280;23615;51.506;7.678;2023-03-13T11:38:17;98159.22;;;15.73;80.93
37778;BME280;23615;51.506;7.678;2023-03-13T11:43:48;98173.47;;;15.73;80.17
37778;BME280;23615;51.506;7.678;2023-03-13T11:46:39;98159.91;;;15.78;79.22
37778;BME280;23615;51.506;7.678;2023-03-13T11:52:23;98133.56;;;15.89;79.14
37778;BME280;23615;51.506;7.678;2023-03-13T12:00:32;98135.03;;;15.95;78.09
37778;BME280;23615;51.506;7.678;2023-03-13T12:03:01;98139.63;;;15.94;79.47
37778;BME280;23615;51.506;7.678;2023-03-13T12:05:37;98118.38;;;16.06;78.88
37778;BME280;23615;51.506;7.678;2023-03-13T12:08:10;98122.84;;;16.11;79.03
37778;BME280;23615;51.506;7.678;2023-03-13T12:10:46;98114.94;;;16.15;79.62
37778;BME280;23615;51.506;7.678;2023-03-13T12:13:18;98108.69;;;16.28;77.15
37778;BME280;23615;51.506;7.678;2023-03-13T12:15:49;98101.44;;;16.28;76.75
37778;BME280;23615;51.506;7.678;2023-03-13T12:18:24;98119.16;;;16.29;75.21
37778;BME280;23615;51.506;7.678;2023-03-13T12:20:59;98108.09;;;16.08;75.69
37778;BME280;23615;51.506;7.678;2023-03-13T12:26:11;98096.25;;;16.09;77.13
37778;BME280;23615;51.506;7.678;2023-03-13T12:28:50;98089.38;;;16.03;77.84
37778;BME280;23615;51.506;7.678;2023-03-13T12:31:21;98103.88;;;16.16;78.50
37778;BME280;23615;51.506;7.678;2023-03-13T12:39:34;98077.63;;;16.53;78.16
37778;BME280;23615;51.506;7.678;2023-03-13T12:42:22;98072.56;;;16.51;76.95
37778;BME280;23615;51.506;7.678;2023-03-13T12:44:54;98063.84;;;16.45;76.20
37778;BME280;23615;51.506;7.678;2023-03-13T13:00:27;98041.34;;;16.81;76.27
37778;BME280;23615;51.506;7.678;2023-03-13T13:05:57;98046.88;;;16.76;74.73
37778;BME280;23615;51.506;7.678;2023-03-13T13:08:24;98034.31;;;16.63;75.18
37778;BME280;23615;51.506;7.678;2023-03-13T13:10:50;98046.88;;;16.45;76.41
37778;BME280;23615;51.506;7.678;2023-03-13T13:13:17;98040.44;;;16.55;76.86
37778;BME280;23615;51.506;7.678;2023-03-13T13:15:46;98049.72;;;16.71;76.12
37778;BME280;23615;51.506;7.678;2023-03-13T13:18:24;98031.69;;;16.80;75.89
37778;BME280;23615;51.506;7.678;2023-03-13T13:23:38;98032.28;;;16.68;76.34
37778;BME280;23615;51.506;7.678;2023-03-13T13:28:51;98024.97;;;16.69;75.33
37778;BME280;23615;51.506;7.678;2023-03-13T13:39:51;97999.72;;;16.48;74.09
37778;BME280;23615;51.506;7.678;2023-03-13T13:47:28;97991.47;;;17.01;72.56
37778;BME280;23615;51.506;7.678;2023-03-13T13:49:56;97982.09;;;16.90;72.31
37778;BME280;23615;51.506;7.678;2023-03-13T13:52:37;98006.63;;;16.71;73.60
37778;BME280;23615;51.506;7.678;2023-03-13T13:58:21;97996.06;;;16.52;74.42
37778;BME280;23615;51.506;7.678;2023-03-13T14:00:59;97981.09;;;16.68;73.99
37778;BME280;23615;51.506;7.678;2023-03-13T14:03:30;97996.41;;;16.59;74.22
37778;BME280;23615;51.506;7.678;2023-03-13T14:06:02;97993.13;;;16.62;73.95
37778;BME280;23615;51.506;7.678;2023-03-13T14:08:30;97986.00;;;16.66;73.97
37778;BME280;23615;51.506;7.678;2023-03-13T14:11:27;97973.34;;;16.67;73.45
37778;BME280;23615;51.506;7.678;2023-03-13T14:14:19;97978.22;;;16.56;73.15
37778;BME280;23615;51.506;7.678;2023-03-13T14:16:47;97977.56;;;16.59;73.15
37778;BME280;23615;51.506;7.678;2023-03-13T14:22:06;97946.69;;;16.57;72.92
37778;BME280;23615;51.506;7.678;2023-03-13T14:24:32;97951.09;;;16.44;73.13
37778;BME280;23615;51.506;7.678;2023-03-13T14:27:02;97954.09;;;16.42;73.53
37778;BME280;23615;51.506;7.678;2023-03-13T14:29:41;97949.31;;;16.39;73.93
37778;BME280;23615;51.506;7.678;2023-03-13T14:32:07;97947.28;;;16.45;74.12
37778;BME280;23615;51.506;7.678;2023-03-13T14:34:32;97933.53;;;16.46;73.76